MSC Seattle — LXST — position and weather

sailwx.info

Track history (hours):
 
Tides and Currents Weather Stations Pressure Air Temp Water Temp Dewpoint Dewpoint Depression Visibility Wind Speed Wind Dir Waves Ship Positions

MSC Seattle

Last reported at 2017-Nov-21 05:00 UTC. Time now 2017-Nov-21 06:30 UTC.
Position N 36°00' E 016°06'.

Length 300 m; draft 14.3 m.

Type: Ship. MMSI: 253380000.

Wind from 180 at 12 knots

Barometer 1022.0 mb
Air temperature 18.0 ° C
Visibility: greater than 10.8 NM
Water temperature 18.0 ° C

Date/timePositionNaut miles runAvg speedWind from/ knotsBaromVisibWave heightAir tempDewpointWater temp
2017-Nov-21 05:00N 36°00' E 016°06'40617.7 180 / 121022.010.8 18.0 18.0
2017-Nov-20 06:00N 38°00' E 008°00'25716.6 330 / 231022.010.8 18.018.017.0
2017-Nov-19 14:28N 39°02' E 002°41'917.8
2017-Nov-19 13:56N 39°05' E 002°30'156 3.9
2017-Nov-17 22:16N 37°44' W 000°20'1019.6
2017-Nov-17 21:45N 37°35' W 000°28'519.6
2017-Nov-17 21:30N 37°32' W 000°32'1019.7
2017-Nov-17 21:00N 37°25' W 000°41'1019.5
2017-Nov-17 20:30N 37°19' W 000°51'1019.3
2017-Nov-17 20:00N 37°12' W 000°60'20218.3
2017-Nov-17 09:00N 36°00' W 004°54'1425.5 080 / 191021.010.8 18.014.616.0
2017-Nov-17 08:26N 36°01' W 005°12'819.8
2017-Nov-17 08:00N 35°58' W 005°22'4622.8
2017-Nov-17 06:00N 35°54' W 006°18'13418.9 090 / 201019.010.8 18.0 18.0
2017-Nov-16 22:53N 36°29' W 008°58'1019.6
2017-Nov-16 22:22N 36°32' W 009°11'5218.5
2017-Nov-16 19:33N 37°18' W 009°41'119.9
2017-Nov-16 19:30N 37°19' W 009°42'1020.0
2017-Nov-16 19:00N 37°28' W 009°45'1020.2
2017-Nov-16 18:30N 37°38' W 009°48'1020.0
2017-Nov-16 18:00N 37°48' W 009°51'1019.9
2017-Nov-16 17:30N 37°58' W 009°54'1019.9
2017-Nov-16 17:00N 38°07' W 009°56'1020.1
2017-Nov-16 16:30N 38°17' W 009°59'1020.1
2017-Nov-16 16:00N 38°27' W 010°01'1019.7
2017-Nov-16 15:30N 38°37' W 010°04'1019.5
2017-Nov-16 15:00N 38°46' W 010°07'1019.4
2017-Nov-16 14:30N 38°56' W 010°08'1019.6
2017-Nov-16 14:00N 39°06' W 010°08'1019.4
2017-Nov-16 13:30N 39°15' W 010°08'1019.7
2017-Nov-16 13:00N 39°25' W 010°08'1019.5
2017-Nov-16 12:30N 39°35' W 010°07'12121.9
2017-Nov-16 07:00N 41°36' W 010°06'15917.7 180 / 21020.010.8 16.0 15.0
2017-Nov-15 22:00N 44°12' W 009°24'24620.4 200 / 101021.010.8 16.012.414.0
2017-Nov-15 09:56N 47°51' W 006°41'5021.5
2017-Nov-15 07:35N 48°34' W 006°04'2440.5
2017-Nov-15 07:00N 48°54' W 005°42'733.3 230 / 101025.010.8 14.0 11.0
2017-Nov-15 06:47N 48°50' W 005°51'3221.1
2017-Nov-15 05:16N 49°07' W 005°09'6420.3
2017-Nov-15 02:08N 49°38' W 003°44'620.0
2017-Nov-15 01:52N 49°41' W 003°37'920.4
2017-Nov-15 01:27N 49°46' W 003°26'920.9
2017-Nov-15 01:00N 49°50' W 003°13'1121.6
2017-Nov-15 00:30N 49°56' W 002°59'1122.1
2017-Nov-15 00:00N 49°60' W 002°43'2323.3
2017-Nov-14 23:00N 50°07' W 002°08'1223.6
2017-Nov-14 22:31N 50°10' W 001°51'1223.3
2017-Nov-14 22:00N 50°13' W 001°33'1122.6
2017-Nov-14 21:30N 50°16' W 001°16'1122.0
2017-Nov-14 21:01N 50°19' W 000°60'1520.8
2017-Nov-14 20:16N 50°23' W 000°37'920.3
2017-Nov-14 19:49N 50°26' W 000°23'620.1
2017-Nov-14 19:30N 50°27' W 000°13'1019.8
2017-Nov-14 19:00N 50°30' E 000°02'1019.5
2017-Nov-14 18:30N 50°33' E 000°16'1019.2
2017-Nov-14 18:00N 50°36' E 000°31'1019.3
2017-Nov-14 17:30N 50°41' E 000°43'1020.2
2017-Nov-14 17:00N 50°48' E 000°56'1121.1
2017-Nov-14 16:30N 50°55' E 001°09'1122.1
2017-Nov-14 16:01N 51°02' E 001°22'1122.6
2017-Nov-14 15:30N 51°09' E 001°36'1020.7
2017-Nov-14 15:00N 51°15' E 001°49'1019.5
2017-Nov-14 14:31N 51°24' E 001°57'1019.8
2017-Nov-14 14:00N 51°32' E 002°05'1019.5
2017-Nov-14 13:30N 51°40' E 002°16'1019.0
2017-Nov-14 13:00N 51°47' E 002°26'4516.8
2017-Nov-14 10:20N 52°04' E 003°32'717.0
2017-Nov-14 09:57N 52°04' E 003°43'714.8
2017-Nov-14 09:30N 52°04' E 003°54'4 8.2
2017-Nov-14 09:00N 52°01' E 003°58'510.3
2017-Nov-14 08:30N 51°57' E 004°05'1 1.0
2017-Nov-14 07:59N 51°58' E 004°04'0 0.0
2017-Nov-14 07:29N 51°58' E 004°04'0 0.0
2017-Nov-14 06:59N 51°58' E 004°04'0 0.0
2017-Nov-14 06:29N 51°58' E 004°04'0 0.0
2017-Nov-14 05:59N 51°58' E 004°04'0 0.0
2017-Nov-14 05:29N 51°58' E 004°04'0 0.0
2017-Nov-14 04:59N 51°58' E 004°04'0 0.0
2017-Nov-14 04:29N 51°58' E 004°04'0 0.0
2017-Nov-14 03:59N 51°58' E 004°04'0 0.0
2017-Nov-14 03:29N 51°58' E 004°04'0 0.0
2017-Nov-14 02:59N 51°58' E 004°04'0 0.0
2017-Nov-14 02:26N 51°58' E 004°04'0 0.0
2017-Nov-14 01:59N 51°58' E 004°04'0 0.0
2017-Nov-14 01:29N 51°58' E 004°04'0 0.0
2017-Nov-14 00:59N 51°58' E 004°04'0 0.0
2017-Nov-14 00:29N 51°58' E 004°04'0 0.0
2017-Nov-13 23:59N 51°58' E 004°04'0 0.0
2017-Nov-13 23:29N 51°58' E 004°04'0 0.0
2017-Nov-13 23:00N 51°58' E 004°04'0 0.0
2017-Nov-13 22:28N 51°58' E 004°04'0 0.0
2017-Nov-13 21:58N 51°58' E 004°04'44 2.2
2017-Nov-13 02:00N 51°32' E 003°07'612.9
2017-Nov-13 01:30N 51°27' E 002°60'612.3
2017-Nov-13 01:00N 51°24' E 003°09'918.2
2017-Nov-13 00:30N 51°25' E 003°23'715.0
2017-Nov-13 00:01N 51°26' E 003°35'5 9.7
2017-Nov-12 23:31N 51°24' E 003°43'815.3
2017-Nov-12 23:01N 51°21' E 003°54'612.1
2017-Nov-12 22:30N 51°25' E 004°02'510.7
2017-Nov-12 22:00N 51°23' E 004°10'5 9.4
2017-Nov-12 21:31N 51°21' E 004°16'3 5.4
2017-Nov-12 20:59N 51°18' E 004°16'0 0.0
2017-Nov-12 20:29N 51°18' E 004°16'0 0.0
2017-Nov-12 19:59N 51°18' E 004°16'0 0.0
2017-Nov-12 19:29N 51°18' E 004°16'0 0.0
2017-Nov-12 18:59N 51°18' E 004°16'0 0.0
2017-Nov-12 18:29N 51°18' E 004°16'0 0.0
2017-Nov-12 17:59N 51°18' E 004°16'0 0.0
2017-Nov-12 17:29N 51°18' E 004°16'0 0.0
2017-Nov-12 16:59N 51°18' E 004°16'0 0.0
2017-Nov-12 16:26N 51°18' E 004°16'0 0.0
2017-Nov-12 15:59N 51°18' E 004°16'0 0.0
2017-Nov-12 15:29N 51°18' E 004°16'0 0.0
2017-Nov-12 14:58N 51°18' E 004°16'0 0.0
2017-Nov-12 14:28N 51°18' E 004°16'0 0.0
2017-Nov-12 13:55N 51°18' E 004°16'0 0.0
2017-Nov-12 13:28N 51°18' E 004°16'0 0.0
2017-Nov-12 12:58N 51°18' E 004°16'0 0.0
2017-Nov-12 12:29N 51°18' E 004°16'0 0.0
2017-Nov-12 11:59N 51°18' E 004°16'0 0.0
2017-Nov-12 11:20N 51°18' E 004°16'0 0.0
2017-Nov-12 10:59N 51°18' E 004°16'0 0.0
2017-Nov-12 10:14N 51°18' E 004°16'0 0.0
2017-Nov-12 09:59N 51°18' E 004°16'0 0.0
2017-Nov-12 09:29N 51°18' E 004°16'0 0.0
2017-Nov-12 08:59N 51°18' E 004°16'0 0.0
2017-Nov-12 08:29N 51°18' E 004°16'0 0.0
2017-Nov-12 07:59N 51°18' E 004°16'0 0.0
2017-Nov-12 07:29N 51°18' E 004°16'0 0.0
2017-Nov-12 06:53N 51°18' E 004°16'0 0.0
2017-Nov-12 06:26N 51°18' E 004°16'0 0.0
2017-Nov-12 05:59N 51°18' E 004°16'0 0.0
2017-Nov-12 05:29N 51°18' E 004°16'0 0.0
2017-Nov-12 04:56N 51°18' E 004°16'0 0.0
2017-Nov-12 04:29N 51°18' E 004°16'0 0.0
2017-Nov-12 03:59N 51°18' E 004°16'0 0.0
2017-Nov-12 03:29N 51°18' E 004°16'0 0.0
2017-Nov-12 02:59N 51°18' E 004°16'0 0.0
2017-Nov-12 02:29N 51°18' E 004°16'0 0.0
2017-Nov-12 01:59N 51°18' E 004°16'0 0.0
2017-Nov-12 01:28N 51°18' E 004°16'0 0.0
2017-Nov-12 00:58N 51°18' E 004°16'0 0.0
2017-Nov-12 00:28N 51°18' E 004°16'0 0.0
2017-Nov-11 23:52N 51°18' E 004°16'0 0.0
2017-Nov-11 23:28N 51°18' E 004°16'0 0.0
2017-Nov-11 22:55N 51°18' E 004°16'0 0.0
2017-Nov-11 22:28N 51°18' E 004°16'0 0.0
2017-Nov-11 21:58N 51°18' E 004°16'0 0.0
2017-Nov-11 21:25N 51°18' E 004°16'0 0.0
2017-Nov-11 20:57N 51°18' E 004°16'0 0.0
2017-Nov-11 20:29N 51°18' E 004°16'0 0.0
2017-Nov-11 19:56N 51°18' E 004°16'0 0.0
2017-Nov-11 19:26N 51°18' E 004°16'0 0.0
2017-Nov-11 18:59N 51°18' E 004°16'0 0.0
2017-Nov-11 18:29N 51°18' E 004°16'0 0.0
2017-Nov-11 17:56N 51°18' E 004°16'0 0.0
2017-Nov-11 17:23N 51°18' E 004°16'0 0.1
2017-Nov-11 16:59N 51°18' E 004°16'0 0.0
2017-Nov-11 16:29N 51°18' E 004°16'0 0.0
2017-Nov-11 15:59N 51°18' E 004°16'0 0.0
2017-Nov-11 15:29N 51°18' E 004°16'0 0.0
2017-Nov-11 14:59N 51°18' E 004°16'0 0.0
2017-Nov-11 14:29N 51°18' E 004°16'0 0.0
2017-Nov-11 13:59N 51°18' E 004°16'0 0.0
2017-Nov-11 13:29N 51°18' E 004°16'0 0.0
2017-Nov-11 12:59N 51°18' E 004°16'0 0.0
2017-Nov-11 12:30N 51°18' E 004°16'0 0.1
2017-Nov-11 12:00N 51°18' E 004°16'1 1.3
2017-Nov-11 11:30N 51°18' E 004°16'3 5.8
2017-Nov-11 11:00N 51°21' E 004°15'5 9.0
2017-Nov-11 10:30N 51°22' E 004°08'5 9.4
2017-Nov-11 10:00N 51°25' E 004°02'4 8.3
2017-Nov-11 09:30N 51°23' E 003°56'611.0
2017-Nov-11 09:00N 51°21' E 003°48'612.8
2017-Nov-11 08:30N 51°26' E 003°41'510.1
2017-Nov-11 08:00N 51°25' E 003°33'613.0
2017-Nov-11 07:31N 51°25' E 003°23'917.8
2017-Nov-11 07:01N 51°24' E 003°09'815.9
2017-Nov-11 06:30N 51°25' E 002°56'816.1
2017-Nov-11 06:00N 51°23' E 002°44'4 8.4
2017-Nov-11 05:29N 51°22' E 002°37'  
Track history (hours):
 
Tides and Currents Weather Stations Pressure Air Temp Water Temp Dewpoint Dewpoint Depression Visibility Wind Speed Wind Dir Waves Ship Positions

MSC Seattle

Last reported at 2017-Nov-21 05:00 UTC. Time now 2017-Nov-21 06:30 UTC.
Position N 36°00' E 016°06'.

Length 300 m; draft 14.3 m.

Type: Ship. MMSI: 253380000.

Wind from 180 at 12 knots

Barometer 1022.0 mb
Air temperature 18.0 ° C
Visibility: greater than 10.8 NM
Water temperature 18.0 ° C

Date/timePositionNaut miles runAvg speedWind from/ knotsBaromVisibWave heightAir tempDewpointWater temp
2017-Nov-21 05:00N 36°00' E 016°06'40617.7 180 / 121022.010.8 18.0 18.0
2017-Nov-20 06:00N 38°00' E 008°00'25716.6 330 / 231022.010.8 18.018.017.0
2017-Nov-19 14:28N 39°02' E 002°41'917.8
2017-Nov-19 13:56N 39°05' E 002°30'156 3.9
2017-Nov-17 22:16N 37°44' W 000°20'1019.6
2017-Nov-17 21:45N 37°35' W 000°28'519.6
2017-Nov-17 21:30N 37°32' W 000°32'1019.7
2017-Nov-17 21:00N 37°25' W 000°41'1019.5
2017-Nov-17 20:30N 37°19' W 000°51'1019.3
2017-Nov-17 20:00N 37°12' W 000°60'20218.3
2017-Nov-17 09:00N 36°00' W 004°54'1425.5 080 / 191021.010.8 18.014.616.0
2017-Nov-17 08:26N 36°01' W 005°12'819.8
2017-Nov-17 08:00N 35°58' W 005°22'4622.8
2017-Nov-17 06:00N 35°54' W 006°18'13418.9 090 / 201019.010.8 18.0 18.0
2017-Nov-16 22:53N 36°29' W 008°58'1019.6
2017-Nov-16 22:22N 36°32' W 009°11'5218.5
2017-Nov-16 19:33N 37°18' W 009°41'119.9
2017-Nov-16 19:30N 37°19' W 009°42'1020.0
2017-Nov-16 19:00N 37°28' W 009°45'1020.2
2017-Nov-16 18:30N 37°38' W 009°48'1020.0
2017-Nov-16 18:00N 37°48' W 009°51'1019.9
2017-Nov-16 17:30N 37°58' W 009°54'1019.9
2017-Nov-16 17:00N 38°07' W 009°56'1020.1
2017-Nov-16 16:30N 38°17' W 009°59'1020.1
2017-Nov-16 16:00N 38°27' W 010°01'1019.7
2017-Nov-16 15:30N 38°37' W 010°04'1019.5
2017-Nov-16 15:00N 38°46' W 010°07'1019.4
2017-Nov-16 14:30N 38°56' W 010°08'1019.6
2017-Nov-16 14:00N 39°06' W 010°08'1019.4
2017-Nov-16 13:30N 39°15' W 010°08'1019.7
2017-Nov-16 13:00N 39°25' W 010°08'1019.5
2017-Nov-16 12:30N 39°35' W 010°07'12121.9
2017-Nov-16 07:00N 41°36' W 010°06'15917.7 180 / 21020.010.8 16.0 15.0
2017-Nov-15 22:00N 44°12' W 009°24'24620.4 200 / 101021.010.8 16.012.414.0
2017-Nov-15 09:56N 47°51' W 006°41'5021.5
2017-Nov-15 07:35N 48°34' W 006°04'2440.5
2017-Nov-15 07:00N 48°54' W 005°42'733.3 230 / 101025.010.8 14.0 11.0
2017-Nov-15 06:47N 48°50' W 005°51'3221.1
2017-Nov-15 05:16N 49°07' W 005°09'6420.3
2017-Nov-15 02:08N 49°38' W 003°44'620.0
2017-Nov-15 01:52N 49°41' W 003°37'920.4
2017-Nov-15 01:27N 49°46' W 003°26'920.9
2017-Nov-15 01:00N 49°50' W 003°13'1121.6
2017-Nov-15 00:30N 49°56' W 002°59'1122.1
2017-Nov-15 00:00N 49°60' W 002°43'2323.3
2017-Nov-14 23:00N 50°07' W 002°08'1223.6
2017-Nov-14 22:31N 50°10' W 001°51'1223.3
2017-Nov-14 22:00N 50°13' W 001°33'1122.6
2017-Nov-14 21:30N 50°16' W 001°16'1122.0
2017-Nov-14 21:01N 50°19' W 000°60'1520.8
2017-Nov-14 20:16N 50°23' W 000°37'920.3
2017-Nov-14 19:49N 50°26' W 000°23'620.1
2017-Nov-14 19:30N 50°27' W 000°13'1019.8
2017-Nov-14 19:00N 50°30' E 000°02'1019.5
2017-Nov-14 18:30N 50°33' E 000°16'1019.2
2017-Nov-14 18:00N 50°36' E 000°31'1019.3
2017-Nov-14 17:30N 50°41' E 000°43'1020.2
2017-Nov-14 17:00N 50°48' E 000°56'1121.1
2017-Nov-14 16:30N 50°55' E 001°09'1122.1
2017-Nov-14 16:01N 51°02' E 001°22'1122.6
2017-Nov-14 15:30N 51°09' E 001°36'1020.7
2017-Nov-14 15:00N 51°15' E 001°49'1019.5
2017-Nov-14 14:31N 51°24' E 001°57'1019.8
2017-Nov-14 14:00N 51°32' E 002°05'1019.5
2017-Nov-14 13:30N 51°40' E 002°16'1019.0
2017-Nov-14 13:00N 51°47' E 002°26'4516.8
2017-Nov-14 10:20N 52°04' E 003°32'717.0
2017-Nov-14 09:57N 52°04' E 003°43'714.8
2017-Nov-14 09:30N 52°04' E 003°54'4 8.2
2017-Nov-14 09:00N 52°01' E 003°58'510.3
2017-Nov-14 08:30N 51°57' E 004°05'1 1.0
2017-Nov-14 07:59N 51°58' E 004°04'0 0.0
2017-Nov-14 07:29N 51°58' E 004°04'0 0.0
2017-Nov-14 06:59N 51°58' E 004°04'0 0.0
2017-Nov-14 06:29N 51°58' E 004°04'0 0.0
2017-Nov-14 05:59N 51°58' E 004°04'0 0.0
2017-Nov-14 05:29N 51°58' E 004°04'0 0.0
2017-Nov-14 04:59N 51°58' E 004°04'0 0.0
2017-Nov-14 04:29N 51°58' E 004°04'0 0.0
2017-Nov-14 03:59N 51°58' E 004°04'0 0.0
2017-Nov-14 03:29N 51°58' E 004°04'0 0.0
2017-Nov-14 02:59N 51°58' E 004°04'0 0.0
2017-Nov-14 02:26N 51°58' E 004°04'0 0.0
2017-Nov-14 01:59N 51°58' E 004°04'0 0.0
2017-Nov-14 01:29N 51°58' E 004°04'0 0.0
2017-Nov-14 00:59N 51°58' E 004°04'0 0.0
2017-Nov-14 00:29N 51°58' E 004°04'0 0.0
2017-Nov-13 23:59N 51°58' E 004°04'0 0.0
2017-Nov-13 23:29N 51°58' E 004°04'0 0.0
2017-Nov-13 23:00N 51°58' E 004°04'0 0.0
2017-Nov-13 22:28N 51°58' E 004°04'0 0.0
2017-Nov-13 21:58N 51°58' E 004°04'44 2.2
2017-Nov-13 02:00N 51°32' E 003°07'612.9
2017-Nov-13 01:30N 51°27' E 002°60'612.3
2017-Nov-13 01:00N 51°24' E 003°09'918.2
2017-Nov-13 00:30N 51°25' E 003°23'715.0
2017-Nov-13 00:01N 51°26' E 003°35'5 9.7
2017-Nov-12 23:31N 51°24' E 003°43'815.3
2017-Nov-12 23:01N 51°21' E 003°54'612.1
2017-Nov-12 22:30N 51°25' E 004°02'510.7
2017-Nov-12 22:00N 51°23' E 004°10'5 9.4
2017-Nov-12 21:31N 51°21' E 004°16'3 5.4
2017-Nov-12 20:59N 51°18' E 004°16'0 0.0
2017-Nov-12 20:29N 51°18' E 004°16'0 0.0
2017-Nov-12 19:59N 51°18' E 004°16'0 0.0
2017-Nov-12 19:29N 51°18' E 004°16'0 0.0
2017-Nov-12 18:59N 51°18' E 004°16'0 0.0
2017-Nov-12 18:29N 51°18' E 004°16'0 0.0
2017-Nov-12 17:59N 51°18' E 004°16'0 0.0
2017-Nov-12 17:29N 51°18' E 004°16'0 0.0
2017-Nov-12 16:59N 51°18' E 004°16'0 0.0
2017-Nov-12 16:26N 51°18' E 004°16'0 0.0
2017-Nov-12 15:59N 51°18' E 004°16'0 0.0
2017-Nov-12 15:29N 51°18' E 004°16'0 0.0
2017-Nov-12 14:58N 51°18' E 004°16'0 0.0
2017-Nov-12 14:28N 51°18' E 004°16'0 0.0
2017-Nov-12 13:55N 51°18' E 004°16'0 0.0
2017-Nov-12 13:28N 51°18' E 004°16'0 0.0
2017-Nov-12 12:58N 51°18' E 004°16'0 0.0
2017-Nov-12 12:29N 51°18' E 004°16'0 0.0
2017-Nov-12 11:59N 51°18' E 004°16'0 0.0
2017-Nov-12 11:20N 51°18' E 004°16'0 0.0
2017-Nov-12 10:59N 51°18' E 004°16'0 0.0
2017-Nov-12 10:14N 51°18' E 004°16'0 0.0
2017-Nov-12 09:59N 51°18' E 004°16'0 0.0
2017-Nov-12 09:29N 51°18' E 004°16'0 0.0
2017-Nov-12 08:59N 51°18' E 004°16'0 0.0
2017-Nov-12 08:29N 51°18' E 004°16'0 0.0
2017-Nov-12 07:59N 51°18' E 004°16'0 0.0
2017-Nov-12 07:29N 51°18' E 004°16'0 0.0
2017-Nov-12 06:53N 51°18' E 004°16'0 0.0
2017-Nov-12 06:26N 51°18' E 004°16'0 0.0
2017-Nov-12 05:59N 51°18' E 004°16'0 0.0
2017-Nov-12 05:29N 51°18' E 004°16'0 0.0
2017-Nov-12 04:56N 51°18' E 004°16'0 0.0
2017-Nov-12 04:29N 51°18' E 004°16'0 0.0
2017-Nov-12 03:59N 51°18' E 004°16'0 0.0
2017-Nov-12 03:29N 51°18' E 004°16'0 0.0
2017-Nov-12 02:59N 51°18' E 004°16'0 0.0
2017-Nov-12 02:29N 51°18' E 004°16'0 0.0
2017-Nov-12 01:59N 51°18' E 004°16'0 0.0
2017-Nov-12 01:28N 51°18' E 004°16'0 0.0
2017-Nov-12 00:58N 51°18' E 004°16'0 0.0
2017-Nov-12 00:28N 51°18' E 004°16'0 0.0
2017-Nov-11 23:52N 51°18' E 004°16'0 0.0
2017-Nov-11 23:28N 51°18' E 004°16'0 0.0
2017-Nov-11 22:55N 51°18' E 004°16'0 0.0
2017-Nov-11 22:28N 51°18' E 004°16'0 0.0
2017-Nov-11 21:58N 51°18' E 004°16'0 0.0
2017-Nov-11 21:25N 51°18' E 004°16'0 0.0
2017-Nov-11 20:57N 51°18' E 004°16'0 0.0
2017-Nov-11 20:29N 51°18' E 004°16'0 0.0
2017-Nov-11 19:56N 51°18' E 004°16'0 0.0
2017-Nov-11 19:26N 51°18' E 004°16'0 0.0
2017-Nov-11 18:59N 51°18' E 004°16'0 0.0
2017-Nov-11 18:29N 51°18' E 004°16'0 0.0
2017-Nov-11 17:56N 51°18' E 004°16'0 0.0
2017-Nov-11 17:23N 51°18' E 004°16'0 0.1
2017-Nov-11 16:59N 51°18' E 004°16'0 0.0
2017-Nov-11 16:29N 51°18' E 004°16'0 0.0
2017-Nov-11 15:59N 51°18' E 004°16'0 0.0
2017-Nov-11 15:29N 51°18' E 004°16'0 0.0
2017-Nov-11 14:59N 51°18' E 004°16'0 0.0
2017-Nov-11 14:29N 51°18' E 004°16'0 0.0
2017-Nov-11 13:59N 51°18' E 004°16'0 0.0
2017-Nov-11 13:29N 51°18' E 004°16'0 0.0
2017-Nov-11 12:59N 51°18' E 004°16'0 0.0
2017-Nov-11 12:30N 51°18' E 004°16'0 0.1
2017-Nov-11 12:00N 51°18' E 004°16'1 1.3
2017-Nov-11 11:30N 51°18' E 004°16'3 5.8
2017-Nov-11 11:00N 51°21' E 004°15'5 9.0
2017-Nov-11 10:30N 51°22' E 004°08'5 9.4
2017-Nov-11 10:00N 51°25' E 004°02'4 8.3
2017-Nov-11 09:30N 51°23' E 003°56'611.0
2017-Nov-11 09:00N 51°21' E 003°48'612.8
2017-Nov-11 08:30N 51°26' E 003°41'510.1
2017-Nov-11 08:00N 51°25' E 003°33'613.0
2017-Nov-11 07:31N 51°25' E 003°23'917.8
2017-Nov-11 07:01N 51°24' E 003°09'815.9
2017-Nov-11 06:30N 51°25' E 002°56'816.1
2017-Nov-11 06:00N 51°23' E 002°44'4 8.4
2017-Nov-11 05:29N 51°22' E 002°37'  

Dump ship's entire track history